sensor_id;sensor_type;location;lat;lon;timestamp;temperature;humidity
37281;DHT22;23169;41.804;12.596;2023-04-06T00:00:16;8.70;99.90
37281;DHT22;23169;41.804;12.596;2023-04-06T00:02:44;8.40;99.90
37281;DHT22;23169;41.804;12.596;2023-04-06T00:05:13;8.20;80.10
37281;DHT22;23169;41.804;12.596;2023-04-06T00:07:41;8.00;99.90
37281;DHT22;23169;41.804;12.596;2023-04-06T00:10:10;7.40;99.90
37281;DHT22;23169;41.804;12.596;2023-04-06T00:12:39;7.50;99.90
37281;DHT22;23169;41.804;12.596;2023-04-06T00:15:09;7.50;67.40
37281;DHT22;23169;41.804;12.596;2023-04-06T00:17:39;7.50;65.50
37281;DHT22;23169;41.804;12.596;2023-04-06T00:20:07;7.50;74.10
37281;DHT22;23169;41.804;12.596;2023-04-06T00:22:36;7.50;67.40
37281;DHT22;23169;41.804;12.596;2023-04-06T00:25:05;7.30;99.90
37281;DHT22;23169;41.804;12.596;2023-04-06T00:27:34;7.40;51.10
37281;DHT22;23169;41.804;12.596;2023-04-06T00:30:04;8.00;99.90
37281;DHT22;23169;41.804;12.596;2023-04-06T00:32:35;7.40;99.90
37281;DHT22;23169;41.804;12.596;2023-04-06T00:35:05;7.00;99.90
37281;DHT22;23169;41.804;12.596;2023-04-06T00:40:02;6.60;99.90
37281;DHT22;23169;41.804;12.596;2023-04-06T00:42:32;6.80;99.90
37281;DHT22;23169;41.804;12.596;2023-04-06T00:45:01;6.60;99.90
37281;DHT22;23169;41.804;12.596;2023-04-06T00:47:30;7.20;99.90
37281;DHT22;23169;41.804;12.596;2023-04-06T00:49:58;6.60;99.90
37281;DHT22;23169;41.804;12.596;2023-04-06T00:52:28;7.60;99.90
37281;DHT22;23169;41.804;12.596;2023-04-06T00:54:57;7.10;99.90
37281;DHT22;23169;41.804;12.596;2023-04-06T00:57:25;7.00;99.90
37281;DHT22;23169;41.804;12.596;2023-04-06T00:59:53;6.90;29.80
37281;DHT22;23169;41.804;12.596;2023-04-06T01:02:48;6.80;32.80
37281;DHT22;23169;41.804;12.596;2023-04-06T01:05:17;7.40;99.90
37281;DHT22;23169;41.804;12.596;2023-04-06T01:07:46;6.30;99.90
37281;DHT22;23169;41.804;12.596;2023-04-06T01:10:25;6.20;99.90
37281;DHT22;23169;41.804;12.596;2023-04-06T01:12:53;6.40;96.50
37281;DHT22;23169;41.804;12.596;2023-04-06T01:15:23;7.10;99.90
37281;DHT22;23169;41.804;12.596;2023-04-06T01:17:52;6.80;99.90
37281;DHT22;23169;41.804;12.596;2023-04-06T01:20:20;6.60;99.90
37281;DHT22;23169;41.804;12.596;2023-04-06T01:22:48;6.70;99.90
37281;DHT22;23169;41.804;12.596;2023-04-06T01:25:17;6.70;21.50
37281;DHT22;23169;41.804;12.596;2023-04-06T01:27:46;6.60;99.90
37281;DHT22;23169;41.804;12.596;2023-04-06T01:30:14;6.90;99.90
37281;DHT22;23169;41.804;12.596;2023-04-06T01:35:15;6.70;99.90
37281;DHT22;23169;41.804;12.596;2023-04-06T01:37:43;7.20;98.80
37281;DHT22;23169;41.804;12.596;2023-04-06T01:40:11;6.20;99.90
37281;DHT22;23169;41.804;12.596;2023-04-06T01:42:41;6.80;98.10
37281;DHT22;23169;41.804;12.596;2023-04-06T01:45:11;6.20;99.90
37281;DHT22;23169;41.804;12.596;2023-04-06T01:47:40;6.40;96.40
37281;DHT22;23169;41.804;12.596;2023-04-06T01:52:38;6.40;99.30
37281;DHT22;23169;41.804;12.596;2023-04-06T01:57:36;6.00;97.70
37281;DHT22;23169;41.804;12.596;2023-04-06T02:00:06;6.70;98.40
37281;DHT22;23169;41.804;12.596;2023-04-06T02:02:34;6.70;99.50
37281;DHT22;23169;41.804;12.596;2023-04-06T02:07:32;6.10;99.40
37281;DHT22;23169;41.804;12.596;2023-04-06T02:10:01;6.20;99.70
37281;DHT22;23169;41.804;12.596;2023-04-06T02:12:31;6.60;98.40
37281;DHT22;23169;41.804;12.596;2023-04-06T02:15:00;6.10;98.30
37281;DHT22;23169;41.804;12.596;2023-04-06T02:17:30;5.80;94.90
37281;DHT22;23169;41.804;12.596;2023-04-06T02:22:28;6.30;99.90
37281;DHT22;23169;41.804;12.596;2023-04-06T02:24:57;6.30;98.20
37281;DHT22;23169;41.804;12.596;2023-04-06T02:27:26;6.20;95.00
37281;DHT22;23169;41.804;12.596;2023-04-06T02:32:24;5.80;99.90
37281;DHT22;23169;41.804;12.596;2023-04-06T02:34:53;6.30;99.90
37281;DHT22;23169;41.804;12.596;2023-04-06T02:37:21;6.10;99.90
37281;DHT22;23169;41.804;12.596;2023-04-06T02:42:25;5.90;97.30
37281;DHT22;23169;41.804;12.596;2023-04-06T02:47:24;5.90;99.90
37281;DHT22;23169;41.804;12.596;2023-04-06T02:49:52;6.40;99.90
37281;DHT22;23169;41.804;12.596;2023-04-06T02:52:21;5.60;98.60
37281;DHT22;23169;41.804;12.596;2023-04-06T02:54:49;6.20;99.90
37281;DHT22;23169;41.804;12.596;2023-04-06T02:57:19;5.90;99.90
37281;DHT22;23169;41.804;12.596;2023-04-06T03:04:48;5.60;99.90
37281;DHT22;23169;41.804;12.596;2023-04-06T03:07:17;6.30;99.90
37281;DHT22;23169;41.804;12.596;2023-04-06T03:09:59;5.80;99.90
37281;DHT22;23169;41.804;12.596;2023-04-06T03:12:45;6.00;99.90
37281;DHT22;23169;41.804;12.596;2023-04-06T03:17:55;6.10;99.90
37281;DHT22;23169;41.804;12.596;2023-04-06T03:20:41;5.70;21.50
37281;DHT22;23169;41.804;12.596;2023-04-06T03:23:14;5.70;93.60
37281;DHT22;23169;41.804;12.596;2023-04-06T03:25:44;5.60;99.90
37281;DHT22;23169;41.804;12.596;2023-04-06T03:28:17;5.70;99.90
37281;DHT22;23169;41.804;12.596;2023-04-06T03:30:47;5.90;99.90
37281;DHT22;23169;41.804;12.596;2023-04-06T03:33:15;5.50;85.00
37281;DHT22;23169;41.804;12.596;2023-04-06T03:35:53;5.30;99.90
37281;DHT22;23169;41.804;12.596;2023-04-06T03:40:51;5.90;99.90
37281;DHT22;23169;41.804;12.596;2023-04-06T03:45:58;5.50;99.90
37281;DHT22;23169;41.804;12.596;2023-04-06T03:48:28;5.50;99.90
37281;DHT22;23169;41.804;12.596;2023-04-06T03:50:57;5.50;98.80
37281;DHT22;23169;41.804;12.596;2023-04-06T03:53:25;5.40;98.90
37281;DHT22;23169;41.804;12.596;2023-04-06T03:55:54;5.70;98.80
37281;DHT22;23169;41.804;12.596;2023-04-06T04:00:53;5.30;99.90
37281;DHT22;23169;41.804;12.596;2023-04-06T04:03:22;5.50;79.20
37281;DHT22;23169;41.804;12.596;2023-04-06T04:08:20;5.20;99.90
37281;DHT22;23169;41.804;12.596;2023-04-06T04:10:50;5.40;99.90
37281;DHT22;23169;41.804;12.596;2023-04-06T04:13:19;5.50;99.90
37281;DHT22;23169;41.804;12.596;2023-04-06T04:15:48;5.40;99.90
37281;DHT22;23169;41.804;12.596;2023-04-06T04:18:16;5.70;52.20
37281;DHT22;23169;41.804;12.596;2023-04-06T04:20:46;5.00;99.90
37281;DHT22;23169;41.804;12.596;2023-04-06T04:23:14;5.80;99.90
37281;DHT22;23169;41.804;12.596;2023-04-06T04:25:43;5.40;99.90
37281;DHT22;23169;41.804;12.596;2023-04-06T04:28:12;5.10;99.90
37281;DHT22;23169;41.804;12.596;2023-04-06T04:30:41;5.20;99.90
37281;DHT22;23169;41.804;12.596;2023-04-06T04:33:09;5.20;81.20
37281;DHT22;23169;41.804;12.596;2023-04-06T04:35:38;5.50;99.80
37281;DHT22;23169;41.804;12.596;2023-04-06T04:38:06;5.60;99.90
37281;DHT22;23169;41.804;12.596;2023-04-06T04:40:37;5.10;99.90
37281;DHT22;23169;41.804;12.596;2023-04-06T04:43:05;5.40;99.90
37281;DHT22;23169;41.804;12.596;2023-04-06T04:45:34;5.20;99.90
37281;DHT22;23169;41.804;12.596;2023-04-06T04:48:03;5.10;99.90
37281;DHT22;23169;41.804;12.596;2023-04-06T04:50:33;4.50;99.90
37281;DHT22;23169;41.804;12.596;2023-04-06T04:53:01;4.90;99.90
37281;DHT22;23169;41.804;12.596;2023-04-06T04:57:59;5.40;91.80
37281;DHT22;23169;41.804;12.596;2023-04-06T05:03:22;4.80;99.90
37281;DHT22;23169;41.804;12.596;2023-04-06T05:05:50;5.10;99.90
37281;DHT22;23169;41.804;12.596;2023-04-06T05:08:20;4.80;6.60
37281;DHT22;23169;41.804;12.596;2023-04-06T05:10:48;4.90;99.90
37281;DHT22;23169;41.804;12.596;2023-04-06T05:13:17;4.90;99.90
37281;DHT22;23169;41.804;12.596;2023-04-06T05:15:46;5.50;99.90
37281;DHT22;23169;41.804;12.596;2023-04-06T05:18:15;5.20;99.90
37281;DHT22;23169;41.804;12.596;2023-04-06T05:20:44;5.40;99.90
37281;DHT22;23169;41.804;12.596;2023-04-06T05:23:13;5.10;99.90
37281;DHT22;23169;41.804;12.596;2023-04-06T05:25:42;5.70;99.90
37281;DHT22;23169;41.804;12.596;2023-04-06T05:28:11;4.80;99.90
37281;DHT22;23169;41.804;12.596;2023-04-06T05:30:43;5.10;72.60
37281;DHT22;23169;41.804;12.596;2023-04-06T05:33:12;5.30;99.90
37281;DHT22;23169;41.804;12.596;2023-04-06T05:35:40;5.50;99.90
37281;DHT22;23169;41.804;12.596;2023-04-06T05:38:09;5.50;99.90
37281;DHT22;23169;41.804;12.596;2023-04-06T05:40:41;5.80;99.90
37281;DHT22;23169;41.804;12.596;2023-04-06T05:43:10;5.90;99.90
37281;DHT22;23169;41.804;12.596;2023-04-06T05:45:39;5.60;98.30
37281;DHT22;23169;41.804;12.596;2023-04-06T05:48:08;6.10;24.40
37281;DHT22;23169;41.804;12.596;2023-04-06T05:50:37;5.60;17.50
37281;DHT22;23169;41.804;12.596;2023-04-06T05:53:06;5.30;99.90
37281;DHT22;23169;41.804;12.596;2023-04-06T05:55:35;5.10;99.90
37281;DHT22;23169;41.804;12.596;2023-04-06T05:58:04;5.10;99.90
37281;DHT22;23169;41.804;12.596;2023-04-06T06:00:33;5.40;99.90
37281;DHT22;23169;41.804;12.596;2023-04-06T06:03:02;5.50;99.90
37281;DHT22;23169;41.804;12.596;2023-04-06T06:05:34;5.80;99.40
37281;DHT22;23169;41.804;12.596;2023-04-06T06:08:03;5.70;96.80
37281;DHT22;23169;41.804;12.596;2023-04-06T06:10:31;5.60;87.90
37281;DHT22;23169;41.804;12.596;2023-04-06T06:13:00;5.50;98.50
37281;DHT22;23169;41.804;12.596;2023-04-06T06:18:00;5.20;72.50
37281;DHT22;23169;41.804;12.596;2023-04-06T06:20:29;6.00;92.70
37281;DHT22;23169;41.804;12.596;2023-04-06T06:25:28;5.50;72.80
37281;DHT22;23169;41.804;12.596;2023-04-06T06:27:59;5.70;16.70
37281;DHT22;23169;41.804;12.596;2023-04-06T06:32:57;6.60;86.90
37281;DHT22;23169;41.804;12.596;2023-04-06T06:35:26;6.30;92.50
37281;DHT22;23169;41.804;12.596;2023-04-06T06:37:57;6.70;82.20
37281;DHT22;23169;41.804;12.596;2023-04-06T06:40:26;6.40;71.50
37281;DHT22;23169;41.804;12.596;2023-04-06T06:42:55;6.40;87.10
37281;DHT22;23169;41.804;12.596;2023-04-06T06:45:24;6.70;88.20
37281;DHT22;23169;41.804;12.596;2023-04-06T06:47:53;6.50;76.50
37281;DHT22;23169;41.804;12.596;2023-04-06T06:50:21;6.10;79.40
37281;DHT22;23169;41.804;12.596;2023-04-06T06:52:50;6.40;3.80
37281;DHT22;23169;41.804;12.596;2023-04-06T06:55:18;6.50;77.90
37281;DHT22;23169;41.804;12.596;2023-04-06T06:57:51;6.80;71.40
37281;DHT22;23169;41.804;12.596;2023-04-06T07:00:20;6.50;70.30
37281;DHT22;23169;41.804;12.596;2023-04-06T07:02:48;6.60;74.70
37281;DHT22;23169;41.804;12.596;2023-04-06T07:05:17;7.10;79.40
37281;DHT22;23169;41.804;12.596;2023-04-06T07:07:46;7.30;68.30
37281;DHT22;23169;41.804;12.596;2023-04-06T07:12:48;7.00;79.30
37281;DHT22;23169;41.804;12.596;2023-04-06T07:15:16;7.70;64.40
37281;DHT22;23169;41.804;12.596;2023-04-06T07:17:45;7.30;66.20
37281;DHT22;23169;41.804;12.596;2023-04-06T07:22:43;7.00;64.70
37281;DHT22;23169;41.804;12.596;2023-04-06T07:25:12;7.50;20.40
37281;DHT22;23169;41.804;12.596;2023-04-06T07:27:42;7.00;57.60
37281;DHT22;23169;41.804;12.596;2023-04-06T07:30:11;7.60;72.50
37281;DHT22;23169;41.804;12.596;2023-04-06T07:32:40;8.00;67.40
37281;DHT22;23169;41.804;12.596;2023-04-06T07:35:08;7.30;61.60
37281;DHT22;23169;41.804;12.596;2023-04-06T07:37:37;7.50;56.50
37281;DHT22;23169;41.804;12.596;2023-04-06T07:40:06;7.80;70.60
37281;DHT22;23169;41.804;12.596;2023-04-06T07:42:35;8.40;56.50
37281;DHT22;23169;41.804;12.596;2023-04-06T07:45:04;8.10;1.00
37281;DHT22;23169;41.804;12.596;2023-04-06T07:47:33;8.80;35.80
37281;DHT22;23169;41.804;12.596;2023-04-06T07:50:01;8.60;51.40
37281;DHT22;23169;41.804;12.596;2023-04-06T07:52:31;8.30;1.00
37281;DHT22;23169;41.804;12.596;2023-04-06T07:55:03;8.50;58.30
37281;DHT22;23169;41.804;12.596;2023-04-06T07:57:31;8.40;46.30
37281;DHT22;23169;41.804;12.596;2023-04-06T08:00:00;9.40;44.20
37281;DHT22;23169;41.804;12.596;2023-04-06T08:02:31;8.70;44.90
37281;DHT22;23169;41.804;12.596;2023-04-06T08:04:59;9.30;36.20
37281;DHT22;23169;41.804;12.596;2023-04-06T08:07:28;9.10;50.20
37281;DHT22;23169;41.804;12.596;2023-04-06T08:09:57;9.50;35.90
37281;DHT22;23169;41.804;12.596;2023-04-06T08:12:25;9.40;1.00
37281;DHT22;23169;41.804;12.596;2023-04-06T08:14:54;10.10;27.80
37281;DHT22;23169;41.804;12.596;2023-04-06T08:17:22;10.20;28.70
37281;DHT22;23169;41.804;12.596;2023-04-06T08:19:51;9.60;1.00
37281;DHT22;23169;41.804;12.596;2023-04-06T08:22:20;9.70;1.00
37281;DHT22;23169;41.804;12.596;2023-04-06T08:27:18;10.00;1.00
37281;DHT22;23169;41.804;12.596;2023-04-06T08:29:48;10.10;1.00
37281;DHT22;23169;41.804;12.596;2023-04-06T08:32:17;10.20;1.00
37281;DHT22;23169;41.804;12.596;2023-04-06T08:34:46;10.10;1.00
37281;DHT22;23169;41.804;12.596;2023-04-06T08:37:15;10.20;1.00
37281;DHT22;23169;41.804;12.596;2023-04-06T08:39:43;10.40;1.00
37281;DHT22;23169;41.804;12.596;2023-04-06T08:42:21;10.70;1.00
37281;DHT22;23169;41.804;12.596;2023-04-06T08:44:53;10.90;1.00
37281;DHT22;23169;41.804;12.596;2023-04-06T08:47:22;11.20;1.00
37281;DHT22;23169;41.804;12.596;2023-04-06T08:49:52;11.30;1.00
37281;DHT22;23169;41.804;12.596;2023-04-06T08:52:22;11.40;1.00
37281;DHT22;23169;41.804;12.596;2023-04-06T08:54:52;11.50;1.00
37281;DHT22;23169;41.804;12.596;2023-04-06T08:57:20;11.60;1.00
37281;DHT22;23169;41.804;12.596;2023-04-06T08:59:49;11.70;1.00
37281;DHT22;23169;41.804;12.596;2023-04-06T09:02:19;11.90;1.00
37281;DHT22;23169;41.804;12.596;2023-04-06T09:04:49;12.00;1.00
37281;DHT22;23169;41.804;12.596;2023-04-06T09:07:21;12.10;1.00
37281;DHT22;23169;41.804;12.596;2023-04-06T09:09:49;12.20;1.00
37281;DHT22;23169;41.804;12.596;2023-04-06T09:12:26;12.50;1.00
37281;DHT22;23169;41.804;12.596;2023-04-06T09:14:56;12.60;1.00
37281;DHT22;23169;41.804;12.596;2023-04-06T09:17:32;12.30;1.00
37281;DHT22;23169;41.804;12.596;2023-04-06T09:20:02;12.90;1.00
37281;DHT22;23169;41.804;12.596;2023-04-06T09:22:39;13.20;1.00
37281;DHT22;23169;41.804;12.596;2023-04-06T09:25:09;13.40;1.00
37281;DHT22;23169;41.804;12.596;2023-04-06T09:27:38;13.50;1.00
37281;DHT22;23169;41.804;12.596;2023-04-06T09:32:51;13.60;1.00
37281;DHT22;23169;41.804;12.596;2023-04-06T09:35:21;13.80;1.00
37281;DHT22;23169;41.804;12.596;2023-04-06T09:37:51;13.80;1.00
37281;DHT22;23169;41.804;12.596;2023-04-06T09:40:20;13.80;1.00
37281;DHT22;23169;41.804;12.596;2023-04-06T09:42:50;13.90;1.00
37281;DHT22;23169;41.804;12.596;2023-04-06T09:45:22;14.10;1.00
37281;DHT22;23169;41.804;12.596;2023-04-06T09:47:51;14.30;1.00
37281;DHT22;23169;41.804;12.596;2023-04-06T09:50:22;14.70;1.00
37281;DHT22;23169;41.804;12.596;2023-04-06T09:52:54;14.90;1.00
37281;DHT22;23169;41.804;12.596;2023-04-06T09:55:30;15.20;1.00
37281;DHT22;23169;41.804;12.596;2023-04-06T09:58:07;15.40;1.00
37281;DHT22;23169;41.804;12.596;2023-04-06T10:01:03;15.50;1.00
37281;DHT22;23169;41.804;12.596;2023-04-06T10:06:20;15.60;1.00
37281;DHT22;23169;41.804;12.596;2023-04-06T10:08:52;15.80;1.00
37281;DHT22;23169;41.804;12.596;2023-04-06T10:11:23;16.00;1.00
37281;DHT22;23169;41.804;12.596;2023-04-06T10:13:51;16.00;1.00
37281;DHT22;23169;41.804;12.596;2023-04-06T10:16:20;16.10;1.00
37281;DHT22;23169;41.804;12.596;2023-04-06T10:18:58;16.20;1.00
37281;DHT22;23169;41.804;12.596;2023-04-06T10:21:29;16.20;1.00
37281;DHT22;23169;41.804;12.596;2023-04-06T10:24:00;16.40;1.00
37281;DHT22;23169;41.804;12.596;2023-04-06T10:26:30;16.50;1.00
37281;DHT22;23169;41.804;12.596;2023-04-06T10:29:03;16.10;1.00
37281;DHT22;23169;41.804;12.596;2023-04-06T10:31:32;15.40;1.00
37281;DHT22;23169;41.804;12.596;2023-04-06T10:34:02;15.20;1.00
37281;DHT22;23169;41.804;12.596;2023-04-06T10:36:33;15.00;1.00
37281;DHT22;23169;41.804;12.596;2023-04-06T10:39:06;14.20;1.00
37281;DHT22;23169;41.804;12.596;2023-04-06T10:41:36;14.30;1.00
37281;DHT22;23169;41.804;12.596;2023-04-06T10:44:20;14.50;1.00
37281;DHT22;23169;41.804;12.596;2023-04-06T10:46:54;14.90;1.00
37281;DHT22;23169;41.804;12.596;2023-04-06T10:49:25;14.80;1.00
37281;DHT22;23169;41.804;12.596;2023-04-06T10:51:56;15.00;1.00
37281;DHT22;23169;41.804;12.596;2023-04-06T10:54:27;15.30;1.00
37281;DHT22;23169;41.804;12.596;2023-04-06T10:56:56;15.60;1.00
37281;DHT22;23169;41.804;12.596;2023-04-06T10:59:24;16.00;1.00
37281;DHT22;23169;41.804;12.596;2023-04-06T11:01:53;16.10;1.00
37281;DHT22;23169;41.804;12.596;2023-04-06T11:04:25;16.00;1.00
37281;DHT22;23169;41.804;12.596;2023-04-06T11:06:53;15.60;1.00
37281;DHT22;23169;41.804;12.596;2023-04-06T11:09:27;15.60;1.00
37281;DHT22;23169;41.804;12.596;2023-04-06T11:11:55;15.70;1.00
37281;DHT22;23169;41.804;12.596;2023-04-06T11:14:25;15.70;1.00
37281;DHT22;23169;41.804;12.596;2023-04-06T11:16:54;16.00;1.00
37281;DHT22;23169;41.804;12.596;2023-04-06T11:19:23;16.40;1.00
37281;DHT22;23169;41.804;12.596;2023-04-06T11:21:52;16.40;1.00
37281;DHT22;23169;41.804;12.596;2023-04-06T11:24:22;16.50;1.00
37281;DHT22;23169;41.804;12.596;2023-04-06T11:26:55;16.30;1.00
37281;DHT22;23169;41.804;12.596;2023-04-06T11:29:28;16.10;1.00
37281;DHT22;23169;41.804;12.596;2023-04-06T11:32:00;15.80;1.00
37281;DHT22;23169;41.804;12.596;2023-04-06T11:34:30;16.00;1.00
37281;DHT22;23169;41.804;12.596;2023-04-06T11:37:01;16.50;1.00
37281;DHT22;23169;41.804;12.596;2023-04-06T11:39:31;17.00;1.00
37281;DHT22;23169;41.804;12.596;2023-04-06T11:42:01;17.10;1.00
37281;DHT22;23169;41.804;12.596;2023-04-06T11:44:36;17.10;1.00
37281;DHT22;23169;41.804;12.596;2023-04-06T11:47:09;17.60;1.00
37281;DHT22;23169;41.804;12.596;2023-04-06T11:49:40;18.30;1.00
37281;DHT22;23169;41.804;12.596;2023-04-06T11:52:19;18.40;1.00
37281;DHT22;23169;41.804;12.596;2023-04-06T11:54:51;18.90;1.00
37281;DHT22;23169;41.804;12.596;2023-04-06T11:57:21;18.90;1.00
37281;DHT22;23169;41.804;12.596;2023-04-06T11:59:52;19.30;1.00
37281;DHT22;23169;41.804;12.596;2023-04-06T12:02:22;19.70;1.00
37281;DHT22;23169;41.804;12.596;2023-04-06T12:04:50;19.60;1.00
37281;DHT22;23169;41.804;12.596;2023-04-06T12:09:49;19.50;1.00
37281;DHT22;23169;41.804;12.596;2023-04-06T12:12:19;19.30;1.00
37281;DHT22;23169;41.804;12.596;2023-04-06T12:14:48;19.40;1.00
37281;DHT22;23169;41.804;12.596;2023-04-06T12:17:19;20.20;1.00
37281;DHT22;23169;41.804;12.596;2023-04-06T12:19:49;21.30;1.00
37281;DHT22;23169;41.804;12.596;2023-04-06T12:22:18;21.20;1.00
37281;DHT22;23169;41.804;12.596;2023-04-06T12:24:47;20.80;1.00
37281;DHT22;23169;41.804;12.596;2023-04-06T12:27:15;20.30;1.00
37281;DHT22;23169;41.804;12.596;2023-04-06T12:29:44;20.50;1.00
37281;DHT22;23169;41.804;12.596;2023-04-06T12:32:12;20.80;1.00
37281;DHT22;23169;41.804;12.596;2023-04-06T12:34:41;21.40;1.00
37281;DHT22;23169;41.804;12.596;2023-04-06T12:37:10;21.60;1.00
37281;DHT22;23169;41.804;12.596;2023-04-06T12:39:38;22.20;1.00
37281;DHT22;23169;41.804;12.596;2023-04-06T12:42:07;23.00;1.00
37281;DHT22;23169;41.804;12.596;2023-04-06T12:44:37;23.30;1.00
37281;DHT22;23169;41.804;12.596;2023-04-06T12:47:06;22.90;1.00
37281;DHT22;23169;41.804;12.596;2023-04-06T12:49:35;23.00;1.00
37281;DHT22;23169;41.804;12.596;2023-04-06T12:52:04;23.40;1.00
37281;DHT22;23169;41.804;12.596;2023-04-06T12:54:34;23.60;1.00
37281;DHT22;23169;41.804;12.596;2023-04-06T12:57:03;22.40;1.00
37281;DHT22;23169;41.804;12.596;2023-04-06T12:59:32;22.10;1.00
37281;DHT22;23169;41.804;12.596;2023-04-06T13:02:03;22.40;1.00
37281;DHT22;23169;41.804;12.596;2023-04-06T13:04:34;22.90;1.00
37281;DHT22;23169;41.804;12.596;2023-04-06T13:07:03;23.60;1.00
37281;DHT22;23169;41.804;12.596;2023-04-06T13:09:31;24.10;1.00
37281;DHT22;23169;41.804;12.596;2023-04-06T13:11:59;24.30;1.00
37281;DHT22;23169;41.804;12.596;2023-04-06T13:14:29;23.40;1.00
37281;DHT22;23169;41.804;12.596;2023-04-06T13:17:00;23.20;1.00
37281;DHT22;23169;41.804;12.596;2023-04-06T13:19:29;22.80;1.00
37281;DHT22;23169;41.804;12.596;2023-04-06T13:21:59;22.80;1.00
37281;DHT22;23169;41.804;12.596;2023-04-06T13:24:29;22.50;1.00
37281;DHT22;23169;41.804;12.596;2023-04-06T13:26:58;23.00;1.00
37281;DHT22;23169;41.804;12.596;2023-04-06T13:29:26;23.70;1.00
37281;DHT22;23169;41.804;12.596;2023-04-06T13:31:55;24.70;1.00
37281;DHT22;23169;41.804;12.596;2023-04-06T13:34:25;25.20;1.00
37281;DHT22;23169;41.804;12.596;2023-04-06T13:36:55;24.30;1.00
37281;DHT22;23169;41.804;12.596;2023-04-06T13:39:23;24.40;1.00
37281;DHT22;23169;41.804;12.596;2023-04-06T13:41:54;24.70;1.00
37281;DHT22;23169;41.804;12.596;2023-04-06T13:44:24;24.80;1.00
37281;DHT22;23169;41.804;12.596;2023-04-06T13:46:53;24.60;1.00
37281;DHT22;23169;41.804;12.596;2023-04-06T13:49:22;23.70;1.00
37281;DHT22;23169;41.804;12.596;2023-04-06T13:51:50;22.30;1.00
37281;DHT22;23169;41.804;12.596;2023-04-06T13:54:19;21.40;1.00
37281;DHT22;23169;41.804;12.596;2023-04-06T13:56:48;21.30;1.00
37281;DHT22;23169;41.804;12.596;2023-04-06T13:59:17;21.20;1.00
37281;DHT22;23169;41.804;12.596;2023-04-06T14:01:47;20.50;1.00
37281;DHT22;23169;41.804;12.596;2023-04-06T14:04:16;20.50;1.00
37281;DHT22;23169;41.804;12.596;2023-04-06T14:06:45;20.40;1.00
37281;DHT22;23169;41.804;12.596;2023-04-06T14:09:14;20.40;1.00
37281;DHT22;23169;41.804;12.596;2023-04-06T14:11:44;20.60;1.00
37281;DHT22;23169;41.804;12.596;2023-04-06T14:14:12;20.50;1.00
37281;DHT22;23169;41.804;12.596;2023-04-06T14:16:41;20.10;1.00
37281;DHT22;23169;41.804;12.596;2023-04-06T14:19:14;20.50;1.00
37281;DHT22;23169;41.804;12.596;2023-04-06T14:21:44;20.40;1.00
37281;DHT22;23169;41.804;12.596;2023-04-06T14:24:13;20.40;1.00
37281;DHT22;23169;41.804;12.596;2023-04-06T14:26:42;20.60;1.00
37281;DHT22;23169;41.804;12.596;2023-04-06T14:29:11;20.50;1.00
37281;DHT22;23169;41.804;12.596;2023-04-06T14:31:39;20.30;1.00
37281;DHT22;23169;41.804;12.596;2023-04-06T14:34:08;20.60;1.00
37281;DHT22;23169;41.804;12.596;2023-04-06T14:36:37;20.60;1.00
37281;DHT22;23169;41.804;12.596;2023-04-06T14:39:06;20.20;1.00
37281;DHT22;23169;41.804;12.596;2023-04-06T14:41:36;20.50;1.00
37281;DHT22;23169;41.804;12.596;2023-04-06T14:44:04;20.70;1.00
37281;DHT22;23169;41.804;12.596;2023-04-06T14:46:35;21.00;1.00
37281;DHT22;23169;41.804;12.596;2023-04-06T14:49:03;20.80;1.00
37281;DHT22;23169;41.804;12.596;2023-04-06T14:51:34;20.20;1.00
37281;DHT22;23169;41.804;12.596;2023-04-06T14:54:03;20.20;1.00
37281;DHT22;23169;41.804;12.596;2023-04-06T14:56:33;20.50;1.00
37281;DHT22;23169;41.804;12.596;2023-04-06T14:59:01;20.80;1.00
37281;DHT22;23169;41.804;12.596;2023-04-06T15:01:34;20.40;1.00
37281;DHT22;23169;41.804;12.596;2023-04-06T15:04:04;20.40;1.00
37281;DHT22;23169;41.804;12.596;2023-04-06T15:06:33;20.00;1.00
37281;DHT22;23169;41.804;12.596;2023-04-06T15:09:01;19.80;1.00
37281;DHT22;23169;41.804;12.596;2023-04-06T15:11:31;19.70;1.00
37281;DHT22;23169;41.804;12.596;2023-04-06T15:14:00;19.90;1.00
37281;DHT22;23169;41.804;12.596;2023-04-06T15:16:31;19.90;1.00
37281;DHT22;23169;41.804;12.596;2023-04-06T15:19:00;19.80;1.00
37281;DHT22;23169;41.804;12.596;2023-04-06T15:21:30;20.40;1.00
37281;DHT22;23169;41.804;12.596;2023-04-06T15:24:02;19.70;1.00
37281;DHT22;23169;41.804;12.596;2023-04-06T15:26:36;19.20;1.00
37281;DHT22;23169;41.804;12.596;2023-04-06T15:29:05;19.30;1.00
37281;DHT22;23169;41.804;12.596;2023-04-06T15:31:33;19.20;1.00
37281;DHT22;23169;41.804;12.596;2023-04-06T15:34:03;18.90;1.00
37281;DHT22;23169;41.804;12.596;2023-04-06T15:36:36;19.20;1.00
37281;DHT22;23169;41.804;12.596;2023-04-06T15:39:06;19.70;1.00
37281;DHT22;23169;41.804;12.596;2023-04-06T15:41:37;19.70;1.00
37281;DHT22;23169;41.804;12.596;2023-04-06T15:44:05;19.50;1.00
37281;DHT22;23169;41.804;12.596;2023-04-06T15:46:35;19.50;1.00
37281;DHT22;23169;41.804;12.596;2023-04-06T15:49:04;19.00;1.00
37281;DHT22;23169;41.804;12.596;2023-04-06T15:51:33;18.80;1.00
37281;DHT22;23169;41.804;12.596;2023-04-06T15:54:01;19.50;1.00
37281;DHT22;23169;41.804;12.596;2023-04-06T15:56:32;20.10;1.00
37281;DHT22;23169;41.804;12.596;2023-04-06T15:59:00;19.50;1.00
37281;DHT22;23169;41.804;12.596;2023-04-06T16:01:31;19.00;1.00
37281;DHT22;23169;41.804;12.596;2023-04-06T16:03:59;18.70;1.00
37281;DHT22;23169;41.804;12.596;2023-04-06T16:06:28;18.50;1.00
37281;DHT22;23169;41.804;12.596;2023-04-06T16:08:57;18.20;1.00
37281;DHT22;23169;41.804;12.596;2023-04-06T16:11:26;17.70;1.00
37281;DHT22;23169;41.804;12.596;2023-04-06T16:13:54;17.10;1.00
37281;DHT22;23169;41.804;12.596;2023-04-06T16:16:23;16.60;1.00
37281;DHT22;23169;41.804;12.596;2023-04-06T16:18:52;16.20;1.00
37281;DHT22;23169;41.804;12.596;2023-04-06T16:21:21;15.60;1.00
37281;DHT22;23169;41.804;12.596;2023-04-06T16:23:50;15.50;1.00
37281;DHT22;23169;41.804;12.596;2023-04-06T16:26:20;15.50;1.00
37281;DHT22;23169;41.804;12.596;2023-04-06T16:28:50;15.40;1.00
37281;DHT22;23169;41.804;12.596;2023-04-06T16:31:20;15.40;1.00
37281;DHT22;23169;41.804;12.596;2023-04-06T16:33:51;15.20;1.00
37281;DHT22;23169;41.804;12.596;2023-04-06T16:36:27;15.00;1.00
37281;DHT22;23169;41.804;12.596;2023-04-06T16:38:57;14.80;1.00
37281;DHT22;23169;41.804;12.596;2023-04-06T16:41:26;14.80;1.00
37281;DHT22;23169;41.804;12.596;2023-04-06T16:43:55;14.60;1.00
37281;DHT22;23169;41.804;12.596;2023-04-06T16:46:30;14.60;1.00
37281;DHT22;23169;41.804;12.596;2023-04-06T16:49:00;14.30;1.00
37281;DHT22;23169;41.804;12.596;2023-04-06T16:51:29;14.20;1.00
37281;DHT22;23169;41.804;12.596;2023-04-06T16:53:59;14.00;1.00